Time;durP1;ratioP1;P1;durP2;ratioP2;P2;SDS_P1;SDS_P2;PMS_P1;PMS_P2;Temp;Humidity;BMP_temperature;BMP_pressure;BME280_temperature;BME280_humidity;BME280_pressure;Samples;Min_cycle;Max_cycle;Signal;HPM_P1;HPM_P2
2021/12/23 00:04:23;;;;;;;21.75;12.10;;;;;;;-2.12;84.25;101753.22;10497258;28;20040;-79
2021/12/23 00:09:35;;;;;;;23.73;11.73;;;;;;;-2.11;83.66;101728.84;10498849;28;20051;-79
2021/12/23 00:14:39;;;;;;;24.05;12.65;;;;;;;-2.05;83.76;101734.47;10489006;28;20519;-79
2021/12/23 00:19:57;;;;;;;25.08;12.30;;;;;;;-2.04;83.38;101710.97;10476695;28;20048;-78
2021/12/23 00:24:59;;;;;;;29.67;13.25;;;;;;;-2.06;83.60;101692.28;10477864;28;20044;-78
2021/12/23 00:30:00;;;;;;;26.40;12.82;;;;;;;-2.11;84.22;101680.88;10472335;28;20053;-78
2021/12/23 00:35:06;;;;;;;23.67;12.60;;;;;;;-2.06;83.88;101664.53;10479522;28;20048;-77
2021/12/23 00:40:10;;;;;;;30.70;15.57;;;;;;;-2.08;84.04;101644.16;10464092;28;20045;-78
2021/12/23 00:45:12;;;;;;;29.85;12.98;;;;;;;-2.05;84.07;101636.00;10499757;28;20053;-78
2021/12/23 00:50:14;;;;;;;33.92;14.05;;;;;;;-2.06;84.19;101624.13;10493154;28;20400;-78
2021/12/23 00:55:16;;;;;;;28.65;14.32;;;;;;;-2.02;84.35;101637.91;10496506;28;20098;-78
2021/12/23 01:00:21;;;;;;;27.95;15.55;;;;;;;-1.91;83.74;101662.44;10494915;28;20123;-78
2021/12/23 01:05:22;;;;;;;30.02;14.43;;;;;;;-1.88;83.43;101661.81;10478982;28;20049;-78
2021/12/23 01:10:25;;;;;;;32.08;15.40;;;;;;;-1.84;83.59;101648.75;10496095;28;20480;-78
2021/12/23 01:20:39;;;;;;;28.65;14.15;;;;;;;-1.82;83.54;101621.94;10495185;28;20488;-78
2021/12/23 01:25:40;;;;;;;33.45;15.85;;;;;;;-1.78;82.91;101614.78;10477875;28;20056;-79
2021/12/23 01:30:42;;;;;;;28.17;15.20;;;;;;;-1.76;83.21;101612.41;10448314;28;20515;-78
2021/12/23 01:35:50;;;;;;;32.55;15.52;;;;;;;-1.75;83.78;101611.66;10437814;28;20102;-78
2021/12/23 01:40:52;;;;;;;28.17;14.63;;;;;;;-1.67;83.58;101607.25;10468278;28;20457;-78
2021/12/23 01:45:53;;;;;;;27.70;13.65;;;;;;;-1.62;82.46;101601.84;10505418;28;20067;-78
2021/12/23 01:50:55;;;;;;;28.38;14.15;;;;;;;-1.61;82.74;101596.03;10522545;28;20087;-78
2021/12/23 01:55:59;;;;;;;32.65;16.10;;;;;;;-1.62;83.07;101601.84;10469086;28;20048;-78
2021/12/23 02:01:01;;;;;;;24.63;13.48;;;;;;;-1.64;83.39;101583.13;10468256;28;20052;-78
2021/12/23 02:06:03;;;;;;;27.38;14.43;;;;;;;-1.60;82.97;101564.94;10512244;28;20561;-78
2021/12/23 02:11:08;;;;;;;32.05;16.58;;;;;;;-1.57;82.50;101599.72;10498132;28;20565;-78
2021/12/23 02:16:10;;;;;;;29.15;15.27;;;;;;;-1.57;83.23;101583.66;10508867;28;20522;-78
2021/12/23 02:21:12;;;;;;;29.88;15.23;;;;;;;-1.59;83.47;101581.00;10471117;28;20052;-78
2021/12/23 02:26:13;;;;;;;36.55;18.67;;;;;;;-1.58;83.16;101561.66;10492665;28;20106;-78
2021/12/23 02:31:15;;;;;;;29.23;14.32;;;;;;;-1.58;82.95;101551.56;10475848;28;20056;-78
2021/12/23 02:36:20;;;;;;;29.30;15.45;;;;;;;-1.55;82.63;101537.53;10478100;28;20047;-78
2021/12/23 02:41:22;;;;;;;29.33;15.93;;;;;;;-1.52;82.28;101547.03;10468300;28;20048;-78
2021/12/23 02:46:29;;;;;;;33.28;15.32;;;;;;;-1.58;82.96;101542.34;10450456;28;20076;-78
2021/12/23 02:51:30;;;;;;;34.38;16.73;;;;;;;-1.67;83.21;101550.00;10451142;28;20041;-79
2021/12/23 02:56:33;;;;;;;32.80;16.42;;;;;;;-1.71;83.34;101530.31;10430567;28;20056;-78
2021/12/23 03:01:35;;;;;;;33.45;17.52;;;;;;;-1.69;83.23;101518.69;10427378;28;20052;-78
2021/12/23 03:06:37;;;;;;;32.95;15.35;;;;;;;-1.72;83.66;101508.31;10467510;28;20036;-78
2021/12/23 03:11:40;;;;;;;27.52;13.55;;;;;;;-1.77;82.73;101514.63;10458541;28;20060;-79
2021/12/23 03:16:42;;;;;;;27.00;14.15;;;;;;;-1.81;82.72;101512.59;10471848;28;20049;-78
2021/12/23 03:28:14;;;;;;;32.67;15.45;;;;;;;-2.15;84.63;101497.06;10485486;28;20040;-78
2021/12/23 03:33:16;;;;;;;29.90;16.45;;;;;;;-2.13;84.17;101491.38;10500281;28;20054;-79
2021/12/23 03:38:19;;;;;;;30.75;16.55;;;;;;;-2.05;83.73;101487.03;10543408;28;20050;-78
2021/12/23 03:43:22;;;;;;;30.77;15.88;;;;;;;-2.20;84.07;101480.66;10542524;28;20048;-79
2021/12/23 03:48:23;;;;;;;25.98;13.90;;;;;;;-2.19;83.85;101483.28;10493869;28;20082;-78
2021/12/23 03:53:25;;;;;;;30.90;17.67;;;;;;;-2.16;83.44;101462.47;10500517;28;20052;-78
2021/12/23 03:58:27;;;;;;;28.15;15.30;;;;;;;-2.13;83.77;101445.06;10498684;28;20037;-79
2021/12/23 04:03:29;;;;;;;31.50;19.58;;;;;;;-2.04;83.16;101423.09;10499412;28;20567;-79
2021/12/23 04:08:30;;;;;;;30.55;16.65;;;;;;;-2.06;83.83;101399.41;10507794;28;20043;-79
2021/12/23 04:13:32;;;;;;;28.27;16.75;;;;;;;-1.97;83.08;101409.38;10499811;28;20051;-79
2021/12/23 04:18:34;;;;;;;35.33;23.67;;;;;;;-1.93;82.99;101399.66;10464083;28;20500;-78
2021/12/23 04:23:35;;;;;;;27.65;14.68;;;;;;;-1.93;82.66;101392.09;10473292;28;20040;-79
2021/12/23 04:28:45;;;;;;;27.25;15.18;;;;;;;-1.88;83.35;101396.63;10440207;28;20041;-80
2021/12/23 04:33:49;;;;;;;41.23;23.90;;;;;;;-1.87;82.73;101363.94;10494791;28;20408;-78
2021/12/23 04:38:51;;;;;;;36.72;23.23;;;;;;;-1.85;82.98;101352.31;10458716;28;20047;-78
2021/12/23 04:43:53;;;;;;;28.25;17.48;;;;;;;-1.84;83.21;101338.06;10477660;28;20400;-78
2021/12/23 04:48:55;;;;;;;30.33;16.10;;;;;;;-1.81;83.31;101326.56;10480606;28;20036;-79
2021/12/23 04:53:57;;;;;;;32.28;19.85;;;;;;;-1.81;83.47;101330.72;10478231;28;20059;-79
2021/12/23 04:58:58;;;;;;;36.20;22.65;;;;;;;-1.75;82.70;101336.28;10465292;28;20097;-79
2021/12/23 05:04:00;;;;;;;29.65;18.27;;;;;;;-1.73;83.48;101324.66;10498323;28;20047;-78
2021/12/23 05:09:02;;;;;;;34.60;17.33;;;;;;;-1.72;83.29;101346.63;10480046;28;20047;-79
2021/12/23 05:14:04;;;;;;;40.30;22.70;;;;;;;-1.67;82.75;101350.41;10472199;28;20056;-78
2021/12/23 05:19:06;;;;;;;35.72;19.90;;;;;;;-1.67;83.29;101355.47;10479463;28;20446;-79
2021/12/23 05:24:08;;;;;;;32.53;20.48;;;;;;;-1.65;83.42;101348.91;10495874;28;20491;-79
2021/12/23 05:29:11;;;;;;;38.78;19.27;;;;;;;-1.66;84.10;101336.16;10496025;28;20483;-80
2021/12/23 05:34:13;;;;;;;32.00;20.08;;;;;;;-1.63;83.36;101334.75;10496077;28;20170;-79
2021/12/23 05:39:14;;;;;;;32.95;18.58;;;;;;;-1.65;83.93;101313.53;10480078;28;20040;-79
2021/12/23 05:44:16;;;;;;;30.70;19.73;;;;;;;-1.63;83.52;101306.97;10497597;28;20044;-79
2021/12/23 05:49:18;;;;;;;36.25;20.45;;;;;;;-1.65;83.20;101288.28;10463137;28;20107;-79
2021/12/23 05:54:19;;;;;;;32.00;17.70;;;;;;;-1.65;83.77;101289.94;10478728;28;20430;-79
2021/12/23 05:59:21;;;;;;;27.75;16.98;;;;;;;-1.63;83.01;101296.88;10495851;28;20037;-79
2021/12/23 06:04:25;;;;;;;33.90;20.02;;;;;;;-1.61;83.11;101297.88;10496256;28;20063;-78
2021/12/23 06:09:27;;;;;;;30.48;15.88;;;;;;;-1.63;83.89;101281.72;10495747;28;20045;-81
2021/12/23 06:14:29;;;;;;;35.70;19.27;;;;;;;-1.62;83.61;101278.44;10494695;28;20246;-80
2021/12/23 06:19:31;;;;;;;37.95;20.38;;;;;;;-1.60;82.93;101287.00;10484262;28;20403;-80
2021/12/23 06:24:32;;;;;;;32.75;18.85;;;;;;;-1.67;83.75;101294.84;10475564;28;20483;-79
2021/12/23 06:29:34;;;;;;;34.05;20.85;;;;;;;-1.73;83.58;101275.78;10492665;28;20054;-80
2021/12/23 06:34:36;;;;;;;33.50;16.58;;;;;;;-1.82;83.85;101268.31;10492933;28;20043;-79
2021/12/23 06:39:38;;;;;;;34.13;22.23;;;;;;;-1.86;84.30;101248.63;10476439;28;20044;-80
2021/12/23 06:44:40;;;;;;;36.17;23.65;;;;;;;-1.88;84.09;101250.16;10486899;28;20055;-80
2021/12/23 06:49:41;;;;;;;32.97;18.17;;;;;;;-1.95;84.58;101237.03;10481295;28;20066;-80
2021/12/23 06:54:46;;;;;;;38.90;22.30;;;;;;;-1.93;84.79;101258.25;10495665;28;20135;-79
2021/12/23 06:59:48;;;;;;;36.53;20.85;;;;;;;-1.89;84.38;101251.81;10467624;28;20032;-79
2021/12/23 07:04:50;;;;;;;28.90;16.55;;;;;;;-1.92;84.93;101242.34;10460824;28;20099;-80
2021/12/23 07:09:52;;;;;;;36.25;20.35;;;;;;;-1.93;85.43;101253.19;10454463;28;20140;-79
2021/12/23 07:14:54;;;;;;;36.88;20.08;;;;;;;-1.89;85.25;101266.06;10452909;28;20450;-79
2021/12/23 07:19:58;;;;;;;29.55;16.38;;;;;;;-1.83;84.62;101274.16;10477920;28;20041;-79
2021/12/23 07:24:59;;;;;;;31.88;16.85;;;;;;;-1.83;84.14;101290.19;10504466;28;20410;-79
2021/12/23 07:30:03;;;;;;;29.20;15.18;;;;;;;-1.80;83.97;101287.03;10475282;28;20045;-80
2021/12/23 07:35:05;;;;;;;30.58;15.63;;;;;;;-1.75;84.79;101290.81;10446626;28;20090;-80
2021/12/23 07:40:15;;;;;;;37.15;19.05;;;;;;;-1.76;84.48;101291.59;10455711;28;20592;-79
2021/12/23 07:45:16;;;;;;;40.60;23.73;;;;;;;-1.72;83.92;101295.25;10510110;28;20418;-78
2021/12/23 07:50:19;;;;;;;33.53;21.88;;;;;;;-1.71;84.21;101295.34;10480417;28;20048;-79
2021/12/23 07:55:21;;;;;;;35.58;19.90;;;;;;;-1.69;84.24;101291.31;10480430;28;20048;-79
2021/12/23 08:00:23;;;;;;;36.65;19.02;;;;;;;-1.66;84.75;101286.50;10483433;28;20037;-79
2021/12/23 08:05:24;;;;;;;43.42;22.08;;;;;;;-1.67;84.78;101278.81;10477350;28;20504;-78
2021/12/23 08:10:29;;;;;;;35.42;22.00;;;;;;;-1.65;85.48;101270.59;10476603;28;20044;-79
2021/12/23 08:15:31;;;;;;;30.48;16.58;;;;;;;-1.60;85.05;101271.81;10470308;28;20048;-79
2021/12/23 08:20:35;;;;;;;32.50;16.42;;;;;;;-1.57;85.16;101265.25;10446786;28;20041;-79
2021/12/23 08:25:39;;;;;;;40.80;22.67;;;;;;;-1.58;85.32;101263.50;10453477;28;20518;-79
2021/12/23 08:30:41;;;;;;;37.28;19.27;;;;;;;-1.54;85.67;101265.53;10514628;28;20136;-79
2021/12/23 08:35:43;;;;;;;37.35;21.20;;;;;;;-1.58;85.32;101240.75;10484382;28;20044;-79
2021/12/23 08:40:44;;;;;;;36.90;20.02;;;;;;;-1.56;85.38;101229.13;10470818;28;20056;-79
2021/12/23 08:45:46;;;;;;;39.63;21.25;;;;;;;-1.53;86.14;101221.81;10504688;28;20048;-80
2021/12/23 08:50:50;;;;;;;34.50;19.00;;;;;;;-1.51;85.52;101206.00;10482584;28;20092;-79
2021/12/23 08:55:52;;;;;;;38.38;22.05;;;;;;;-1.50;86.16;101192.63;10457145;28;20066;-79
2021/12/23 09:00:54;;;;;;;45.70;27.98;;;;;;;-1.49;86.00;101175.78;10477284;28;20044;-80
2021/12/23 09:05:56;;;;;;;36.42;18.83;;;;;;;-1.42;85.78;101174.66;10476738;28;20155;-80
2021/12/23 09:10:59;;;;;;;36.17;22.08;;;;;;;-1.39;85.21;101164.75;10493633;28;20068;-80
2021/12/23 09:16:03;;;;;;;41.70;22.63;;;;;;;-1.34;84.98;101161.84;10496106;28;20048;-79
2021/12/23 09:21:05;;;;;;;42.08;26.58;;;;;;;-1.29;85.25;101152.94;10470590;28;20484;-79
2021/12/23 09:26:26;;;;;;;37.50;22.83;;;;;;;-1.22;84.53;101149.25;10453547;28;20049;-79
2021/12/23 09:36:48;;;;;;;46.73;26.27;;;;;;;-1.15;84.16;101125.31;10483393;28;20047;-80
2021/12/23 09:41:50;;;;;;;48.25;27.17;;;;;;;-1.09;84.19;101112.25;10465888;28;20049;-80
2021/12/23 09:46:52;;;;;;;42.85;24.63;;;;;;;-1.04;83.97;101109.31;10461316;28;20559;-80
2021/12/23 09:52:03;;;;;;;36.53;19.42;;;;;;;-0.98;84.36;101099.66;10508146;28;20067;-80
2021/12/23 09:57:06;;;;;;;36.65;19.55;;;;;;;-0.89;83.32;101089.34;10501682;28;20048;-80
2021/12/23 10:02:11;;;;;;;41.72;22.90;;;;;;;-0.83;83.13;101105.03;10501127;28;20067;-81
2021/12/23 10:07:13;;;;;;;38.47;22.40;;;;;;;-0.74;82.59;101109.88;10536914;28;20384;-80
2021/12/23 10:30:01;;;;;;;34.78;19.08;;;;;;;-0.46;82.16;101050.28;10549785;28;20051;-80
2021/12/23 10:33:47;;;;;;;42.15;21.25;;;;;;;-0.43;81.43;101041.28;10518943;28;20044;-81
2021/12/23 10:38:51;;;;;;;39.20;21.85;;;;;;;-0.37;81.94;101036.66;10518444;28;20040;-80
2021/12/23 10:43:55;;;;;;;35.05;19.70;;;;;;;-0.35;82.01;101030.06;10467845;28;20058;-80
2021/12/23 10:58:01;;;;;;;41.13;25.35;;;;;;;-0.23;81.16;100989.53;10473753;28;20076;-80
2021/12/23 11:00:11;;;;;;;41.38;27.58;;;;;;;-0.12;81.25;100971.66;10454114;28;20049;-80
2021/12/23 11:05:20;;;;;;;34.80;16.42;;;;;;;-0.08;81.13;100964.41;10477862;28;20041;-80
2021/12/23 11:37:39;;;;;;;43.33;26.30;;;;;;;0.22;80.81;100916.63;10498631;28;20060;-80
2021/12/23 11:48:05;;;;;;;35.42;22.40;;;;;;;0.39;81.30;100892.41;10497645;28;20048;-80
2021/12/23 11:53:08;;;;;;;37.28;24.27;;;;;;;0.51;80.81;100868.66;10496926;28;20119;-80
2021/12/23 11:58:10;;;;;;;38.47;23.65;;;;;;;0.61;80.41;100871.88;10480583;28;20090;-80
2021/12/23 12:03:12;;;;;;;40.10;24.52;;;;;;;0.69;80.53;100839.41;10480754;28;20048;-81
2021/12/23 12:08:15;;;;;;;38.17;25.25;;;;;;;0.80;80.40;100840.09;10529472;28;20048;-80
2021/12/23 12:13:17;;;;;;;37.80;19.77;;;;;;;0.87;80.38;100831.25;10475699;28;20041;-80
2021/12/23 12:18:22;;;;;;;34.42;20.70;;;;;;;0.97;80.40;100828.50;10444194;28;20505;-81
2021/12/23 12:23:41;;;;;;;39.58;22.10;;;;;;;1.05;79.39;100834.06;10491343;28;20048;-79
2021/12/23 12:28:47;;;;;;;38.25;20.70;;;;;;;1.08;80.34;100831.75;10478935;28;20094;-80
2021/12/23 12:34:00;;;;;;;39.28;20.88;;;;;;;1.08;80.18;100816.50;10495653;28;20051;-80
2021/12/23 12:39:24;;;;;;;35.65;22.45;;;;;;;1.17;79.15;100800.97;10454176;28;20045;-80
2021/12/23 12:44:40;;;;;;;38.95;24.35;;;;;;;1.16;79.69;100795.00;10437407;28;20064;-81
2021/12/23 12:49:47;;;;;;;35.35;20.77;;;;;;;1.21;79.61;100785.13;10439143;28;20112;-80
2021/12/23 12:55:23;;;;;;;42.60;23.00;;;;;;;1.26;79.70;100779.56;10496003;28;20415;-80
2021/12/23 13:00:34;;;;;;;43.22;25.50;;;;;;;1.32;79.49;100761.31;10471399;28;20117;-80
2021/12/23 13:05:38;;;;;;;41.60;22.95;;;;;;;1.31;80.01;100745.97;10473831;28;20295;-80
2021/12/23 13:10:47;;;;;;;35.50;19.60;;;;;;;1.30;80.29;100745.09;10490283;28;20048;-80
2021/12/23 13:16:14;;;;;;;35.60;20.80;;;;;;;1.35;80.35;100735.22;10459792;28;20045;-80
2021/12/23 13:21:23;;;;;;;43.30;24.60;;;;;;;1.41;80.24;100717.81;10471890;28;20076;-81
2021/12/23 13:26:25;;;;;;;40.13;22.85;;;;;;;1.41;80.30;100721.25;10489522;28;20048;-80
2021/12/23 13:31:31;;;;;;;43.28;25.83;;;;;;;1.50;80.35;100723.47;10469388;28;20045;-80
2021/12/23 13:36:40;;;;;;;38.60;20.38;;;;;;;1.49;80.93;100714.09;10491132;28;20041;-80
2021/12/23 13:41:44;;;;;;;39.15;20.40;;;;;;;1.54;80.92;100697.44;10489529;28;20047;-80
2021/12/23 13:46:58;;;;;;;36.78;20.30;;;;;;;1.60;81.16;100703.69;10468977;28;20072;-80
2021/12/23 13:52:01;;;;;;;36.00;21.90;;;;;;;1.70;80.57;100689.09;10462882;28;20042;-80
2021/12/23 13:57:12;;;;;;;38.78;19.58;;;;;;;1.71;80.80;100674.72;10474205;28;20114;-80
2021/12/23 14:02:15;;;;;;;;;;;;;;;1.79;81.03;100682.78;10470324;28;20044;-80
2021/12/23 14:07:21;;;;;;;36.63;18.50;;;;;;;1.78;81.49;100686.13;10490711;28;19928;-81
2021/12/23 14:12:54;;;;;;;36.70;20.13;;;;;;;1.86;81.23;100683.22;10472180;28;20090;-80
2021/12/23 14:18:07;;;;;;;38.33;21.40;;;;;;;1.80;81.92;100674.34;10489729;28;20049;-80
2021/12/23 14:23:33;;;;;;;35.53;18.08;;;;;;;1.83;81.86;100672.88;10464273;28;20033;-80
2021/12/23 14:28:43;;;;;;;40.15;25.50;;;;;;;1.95;81.33;100662.53;10479912;28;20045;-80
2021/12/23 14:34:00;;;;;;;34.38;17.63;;;;;;;1.88;82.10;100674.03;10471133;28;20487;-80
2021/12/23 14:39:26;;;;;;;36.30;20.58;;;;;;;1.93;82.48;100670.84;10485636;28;20060;-80
2021/12/23 14:44:30;;;;;;;41.90;24.33;;;;;;;1.98;82.27;100666.91;10462675;28;20051;-80
2021/12/23 14:55:04;;;;;;;37.55;19.90;;;;;;;2.00;82.46;100655.16;10491887;28;20110;-80
2021/12/23 15:00:10;;;;;;;37.83;19.27;;;;;;;1.97;82.64;100660.09;10474218;28;20043;-80
2021/12/23 15:05:40;;;;;;;37.95;20.75;;;;;;;2.06;83.03;100663.13;10462845;28;20041;-80
2021/12/23 15:10:43;;;;;;;37.42;19.90;;;;;;;2.07;83.39;100675.06;10493675;28;20036;-80
2021/12/23 15:15:46;;;;;;;37.58;17.85;;;;;;;2.07;83.33;100677.59;10496815;28;20049;-79
2021/12/23 15:20:50;;;;;;;38.63;21.15;;;;;;;2.11;83.53;100671.91;10468789;28;20071;-79
2021/12/23 15:25:52;;;;;;;34.25;19.05;;;;;;;2.15;83.65;100657.72;10495577;28;20066;-79
2021/12/23 15:30:54;;;;;;;34.15;16.15;;;;;;;2.19;83.14;100669.78;10478039;28;20040;-80
2021/12/23 15:35:56;;;;;;;36.53;17.25;;;;;;;2.21;84.07;100656.38;10469533;28;20403;-80
2021/12/23 15:41:00;;;;;;;34.72;16.75;;;;;;;2.26;84.17;100645.59;10470694;28;20040;-80
2021/12/23 15:46:02;;;;;;;35.22;19.02;;;;;;;2.30;83.91;100658.56;10495697;28;20044;-80
2021/12/23 15:51:04;;;;;;;35.38;16.98;;;;;;;2.33;84.26;100668.03;10494532;28;20068;-80
2021/12/23 15:56:06;;;;;;;39.38;19.58;;;;;;;2.35;84.29;100679.13;10456984;28;20044;-80
2021/12/23 16:01:08;;;;;;;38.65;20.52;;;;;;;2.36;84.11;100678.34;10459806;28;20396;-80
2021/12/23 16:11:31;;;;;;;42.60;20.33;;;;;;;2.47;84.19;100677.28;10491151;28;20058;-80
2021/12/23 16:16:34;;;;;;;37.65;18.92;;;;;;;2.50;84.32;100671.50;10471228;28;20139;-80
2021/12/23 16:21:36;;;;;;;38.97;22.10;;;;;;;2.57;84.41;100662.53;10474844;28;20037;-80
2021/12/23 16:26:38;;;;;;;41.60;20.85;;;;;;;2.56;84.43;100661.66;10475668;28;20049;-80
2021/12/23 16:31:40;;;;;;;35.40;18.77;;;;;;;2.54;85.13;100659.03;10466528;28;20040;-80
2021/12/23 16:36:42;;;;;;;39.92;21.00;;;;;;;2.62;85.35;100650.94;10466534;28;20536;-81
2021/12/23 16:41:44;;;;;;;38.67;19.13;;;;;;;2.61;85.22;100644.97;10491430;28;20036;-80
2021/12/23 16:46:49;;;;;;;42.00;21.55;;;;;;;2.70;84.81;100655.63;10460887;28;20044;-81
2021/12/23 16:51:51;;;;;;;42.35;21.73;;;;;;;2.70;85.33;100657.31;10481117;28;20066;-80
2021/12/23 17:02:07;;;;;;;40.00;19.35;;;;;;;2.75;85.85;100663.53;10489428;28;20063;-80
2021/12/23 17:07:09;;;;;;;46.75;26.52;;;;;;;2.84;85.60;100651.28;10459419;28;20056;-81
2021/12/23 17:12:10;;;;;;;41.22;22.10;;;;;;;2.88;85.72;100648.91;10466854;28;20071;-81
2021/12/23 17:17:16;;;;;;;47.90;22.65;;;;;;;2.80;85.72;100641.72;10452728;28;20049;-81
2021/12/23 17:22:17;;;;;;;41.65;21.42;;;;;;;2.82;85.92;100640.16;10458368;28;20047;-80
2021/12/23 17:27:19;;;;;;;45.47;22.63;;;;;;;2.81;85.92;100643.50;10489302;28;20144;-81
2021/12/23 17:32:21;;;;;;;46.15;21.63;;;;;;;2.79;86.36;100624.72;10470694;28;20052;-80
2021/12/23 17:37:23;;;;;;;45.00;22.35;;;;;;;2.80;86.22;100626.47;10493145;28;20356;-81
2021/12/23 17:42:25;;;;;;;42.67;21.48;;;;;;;2.80;86.82;100626.47;10488125;28;20048;-81
2021/12/23 17:47:27;;;;;;;45.85;23.63;;;;;;;2.84;86.41;100602.94;10458645;28;20060;-80
2021/12/23 17:52:28;;;;;;;46.40;23.10;;;;;;;2.80;86.76;100618.84;10456081;28;20505;-81
2021/12/23 17:57:30;;;;;;;51.28;27.23;;;;;;;2.82;87.12;100607.06;10457860;28;20047;-80
2021/12/23 18:02:32;;;;;;;58.05;34.25;;;;;;;2.85;87.39;100619.97;10488530;28;20039;-80
2021/12/23 18:07:34;;;;;;;45.47;22.30;;;;;;;2.80;87.74;100628.16;10452342;28;20105;-80
2021/12/23 18:12:35;;;;;;;51.40;27.98;;;;;;;2.83;87.57;100608.84;10478002;28;20048;-80
2021/12/23 18:17:37;;;;;;;51.42;27.90;;;;;;;2.92;88.06;100594.84;10494788;28;20491;-80
2021/12/23 18:22:39;;;;;;;48.20;23.80;;;;;;;2.87;88.73;100588.66;10483037;28;20122;-80
2021/12/23 18:27:43;;;;;;;62.95;34.63;;;;;;;2.82;89.54;100591.81;10521417;28;20078;-81
2021/12/23 18:32:47;;;;;;;67.13;36.10;;;;;;;2.84;92.29;100572.41;10525970;28;20040;-81
2021/12/23 18:37:56;;;;;;;77.43;39.83;;;;;;;2.81;92.67;100569.69;10490755;28;20056;-80
2021/12/23 18:42:59;;;;;;;77.25;37.92;;;;;;;2.80;92.58;100550.13;10500562;28;20094;-81
2021/12/23 18:48:03;;;;;;;89.30;39.08;;;;;;;2.85;92.88;100537.66;10501047;28;20396;-81
2021/12/23 18:53:05;;;;;;;94.35;39.72;;;;;;;2.78;93.49;100525.41;10482506;28;20502;-81
2021/12/23 18:58:12;;;;;;;97.85;41.38;;;;;;;2.76;94.08;100520.25;10478063;28;20426;-81
2021/12/23 19:03:26;;;;;;;89.72;37.47;;;;;;;2.77;94.05;100524.56;10470907;28;20052;-81
2021/12/23 19:08:28;;;;;;;101.80;39.38;;;;;;;2.75;94.58;100521.06;10454273;28;20052;-80
2021/12/23 19:13:31;;;;;;;95.50;37.50;;;;;;;2.82;94.42;100515.47;10482074;28;20407;-80
2021/12/23 19:18:39;;;;;;;91.65;34.67;;;;;;;2.80;95.12;100511.97;10499712;28;20047;-80
2021/12/23 19:23:41;;;;;;;127.75;47.30;;;;;;;2.85;95.01;100504.59;10477215;28;20045;-81
2021/12/23 19:28:43;;;;;;;117.43;43.55;;;;;;;2.72;95.50;100508.16;10466924;28;20049;-80
2021/12/23 19:33:45;;;;;;;134.60;45.40;;;;;;;2.70;95.89;100497.06;10472586;28;20484;-80
2021/12/23 19:38:47;;;;;;;109.88;35.53;;;;;;;2.68;95.92;100503.72;10444855;28;20510;-80
2021/12/23 19:43:49;;;;;;;133.10;43.33;;;;;;;2.68;95.97;100503.72;10476859;28;20029;-80
2021/12/23 19:48:51;;;;;;;148.10;48.38;;;;;;;2.71;96.06;100498.81;10493034;28;20048;-80
2021/12/23 19:53:54;;;;;;;147.65;44.80;;;;;;;2.77;96.89;100494.03;10468159;28;20060;-81
2021/12/23 19:58:56;;;;;;;137.50;44.83;;;;;;;2.88;97.08;100494.56;10482244;28;20514;-81
2021/12/23 20:03:58;;;;;;;109.90;37.65;;;;;;;2.99;96.28;100484.94;10473341;28;20044;-80
2021/12/23 20:09:01;;;;;;;130.63;43.70;;;;;;;3.06;96.57;100486.97;10470768;28;20037;-81
2021/12/23 20:14:03;;;;;;;85.13;30.90;;;;;;;3.12;97.32;100491.50;10474870;28;20037;-81
2021/12/23 20:19:05;;;;;;;96.03;36.00;;;;;;;3.23;97.34;100481.84;10469495;28;20041;-80
2021/12/23 20:24:07;;;;;;;86.85;33.78;;;;;;;3.31;96.79;100485.66;10480652;28;20053;-82
2021/12/23 20:29:09;;;;;;;56.92;24.50;;;;;;;3.48;97.44;100487.31;10471385;28;20051;-82
2021/12/23 20:34:12;;;;;;;66.22;27.48;;;;;;;3.55;97.60;100482.50;10476704;28;20513;-81
2021/12/23 20:39:13;;;;;;;57.03;23.58;;;;;;;3.66;97.42;100481.34;10460997;28;20049;-81
2021/12/23 20:44:15;;;;;;;73.28;25.90;;;;;;;3.79;97.30;100483.66;10479624;28;20052;-81
2021/12/23 20:49:25;;;;;;;70.45;25.17;;;;;;;3.81;97.31;100482.06;10492187;28;20049;-81
2021/12/23 20:54:37;;;;;;;79.15;26.95;;;;;;;3.91;97.73;100483.38;10494181;28;20037;-81
2021/12/23 20:59:50;;;;;;;80.82;28.17;;;;;;;3.96;97.78;100476.78;10473695;28;20054;-80
2021/12/23 21:04:51;;;;;;;87.45;26.40;;;;;;;3.98;97.90;100466.69;10492069;28;20043;-82
2021/12/23 21:09:54;;;;;;;96.45;28.65;;;;;;;4.07;97.66;100469.63;10479369;28;20052;-81
2021/12/23 21:14:56;;;;;;;98.32;32.88;;;;;;;4.06;97.44;100462.78;10502176;28;20055;-81
2021/12/23 21:19:58;;;;;;;77.03;27.58;;;;;;;4.14;97.53;100447.84;10475397;28;20055;-81
2021/12/23 21:25:00;;;;;;;65.82;25.42;;;;;;;4.15;97.72;100439.41;10479878;28;20037;-81
2021/12/23 21:30:04;;;;;;;70.53;26.40;;;;;;;4.17;98.04;100439.47;10492149;28;20051;-82
2021/12/23 21:35:07;;;;;;;63.55;25.15;;;;;;;4.25;98.11;100438.97;10473715;28;20047;-82
2021/12/23 21:40:10;;;;;;;63.33;24.63;;;;;;;4.35;98.02;100440.28;10492301;28;20048;-82
2021/12/23 21:45:12;;;;;;;58.40;24.10;;;;;;;4.34;98.10;100448.72;10453610;28;20056;-82
2021/12/23 21:50:14;;;;;;;53.45;21.25;;;;;;;4.38;98.07;100450.59;10476018;28;20040;-83
2021/12/23 22:00:25;;;;;;;61.10;22.77;;;;;;;4.49;97.70;100442.56;10492096;28;20040;-83
2021/12/23 22:05:27;;;;;;;58.08;23.10;;;;;;;4.55;97.54;100453.00;10452303;28;20049;-82
2021/12/23 22:10:29;;;;;;;53.05;21.48;;;;;;;4.64;98.23;100433.00;10453517;28;20187;-83
2021/12/23 22:15:34;;;;;;;59.88;23.50;;;;;;;4.84;98.26;100430.41;10478087;28;20049;-83
2021/12/23 22:20:39;;;;;;;54.30;23.05;;;;;;;4.91;98.24;100428.16;10481514;28;20052;-82
2021/12/23 22:25:44;;;;;;;64.28;26.48;;;;;;;4.91;98.45;100417.94;10496548;28;20048;-83
2021/12/23 22:30:46;;;;;;;67.50;26.10;;;;;;;5.00;98.69;100417.47;10488960;28;20505;-83
2021/12/23 22:35:48;;;;;;;62.97;27.80;;;;;;;5.12;98.80;100411.09;10500121;28;20040;-82
2021/12/23 22:40:50;;;;;;;58.72;24.83;;;;;;;5.13;98.55;100412.84;10477328;28;20036;-83
2021/12/23 22:45:52;;;;;;;81.20;37.83;;;;;;;5.24;98.68;100396.28;10482659;28;20044;-82
2021/12/23 22:50:54;;;;;;;58.20;24.27;;;;;;;5.18;98.75;100401.13;10497500;28;20502;-83
2021/12/23 22:56:00;;;;;;;65.85;27.63;;;;;;;5.23;98.68;100389.44;10451492;28;20523;-84
2021/12/23 23:01:03;;;;;;;74.97;27.58;;;;;;;5.24;98.70;100392.03;10463805;28;20416;-84
2021/12/23 23:06:05;;;;;;;66.03;27.42;;;;;;;5.22;98.29;100387.69;10474974;28;20414;-84
2021/12/23 23:11:18;;;;;;;71.85;27.48;;;;;;;5.25;98.56;100392.88;10489734;28;20547;-83
2021/12/23 23:21:40;;;;;;;84.43;30.70;;;;;;;5.34;98.22;100392.41;10478381;28;20127;-81
2021/12/23 23:27:04;;;;;;;94.50;36.90;;;;;;;5.38;99.22;100384.03;10497798;28;20053;-82
2021/12/23 23:42:45;;;;;;;91.20;35.25;;;;;;;5.55;98.56;100364.22;10480746;28;20515;-82
2021/12/23 23:47:47;;;;;;;80.78;30.63;;;;;;;5.62;99.14;100358.53;10466604;28;20052;-83
2021/12/23 23:52:50;;;;;;;98.93;36.67;;;;;;;5.65;99.14;100368.03;10466984;28;20058;-82
2021/12/23 23:57:54;;;;;;;99.50;36.30;;;;;;;5.71;99.33;100361.44;10472325;28;20504;-82
